Time;durP1;ratioP1;P1;durP2;ratioP2;P2;SDS_P1;SDS_P2;PMS_P1;PMS_P2;Temp;Humidity;BMP_temperature;BMP_pressure;BME280_temperature;BME280_humidity;BME280_pressure;Samples;Min_cycle;Max_cycle;Signal;HPM_P1;HPM_P2
2021/05/27 00:00:19;;;;;;;3.80;2.92;;;;;;;;;;10278109;28;20080;-63
2021/05/27 00:05:19;;;;;;;6.22;2.50;;;;;;;;;;10278233;28;20085;-63
2021/05/27 00:10:18;;;;;;;4.93;2.55;;;;;;;;;;10277314;28;20044;-63
2021/05/27 00:15:17;;;;;;;4.43;2.55;;;;;;;;;;10276957;28;20072;-62
2021/05/27 00:20:15;;;;;;;4.20;2.47;;;;;;;;;;10276653;28;20521;-63
2021/05/27 00:25:14;;;;;;;3.40;2.33;;;;;;;;;;10277677;28;20084;-63
2021/05/27 00:30:14;;;;;;;2.67;2.38;;;;;;;;;;10277635;28;20084;-63
2021/05/27 00:35:13;;;;;;;4.07;2.47;;;;;;;;;;10277020;28;20072;-64
2021/05/27 00:40:12;;;;;;;6.00;2.75;;;;;;;;;;10277190;28;20045;-63
2021/05/27 00:45:12;;;;;;;2.70;2.50;;;;;;;;;;10276475;28;20077;-63
2021/05/27 00:50:11;;;;;;;3.95;2.70;;;;;;;;;;10275400;28;20422;-63
2021/05/27 00:55:11;;;;;;;3.30;2.97;;;;;;;;;;10276281;28;20053;-64
2021/05/27 01:00:09;;;;;;;6.88;2.33;;;;;;;;;;10275985;28;20048;-63
2021/05/27 01:05:09;;;;;;;2.85;2.17;;;;;;;;;;10275809;28;20925;-63
2021/05/27 01:10:08;;;;;;;5.95;2.28;;;;;;;;;;10276266;28;20553;-63
2021/05/27 01:15:29;;;;;;;7.47;2.40;;;;;;;;;;10273900;28;20134;-62
2021/05/27 01:20:29;;;;;;;3.03;2.15;;;;;;;;;;10269772;28;20041;-63
2021/05/27 01:25:28;;;;;;;4.82;2.40;;;;;;;;;;10267821;28;20099;-63
2021/05/27 01:30:27;;;;;;;3.72;2.20;;;;;;;;;;10272409;28;20506;-63
2021/05/27 01:35:26;;;;;;;3.45;2.47;;;;;;;;;;10274449;28;20048;-63
2021/05/27 01:40:25;;;;;;;2.97;2.30;;;;;;;;;;10273806;28;20056;-63
2021/05/27 01:45:24;;;;;;;3.55;2.90;;;;;;;;;;10275231;28;20072;-63
2021/05/27 01:50:22;;;;;;;4.13;2.45;;;;;;;;;;10275221;28;20044;-63
2021/05/27 01:55:22;;;;;;;5.80;2.88;;;;;;;;;;10275300;28;20081;-63
2021/05/27 02:00:22;;;;;;;5.45;2.38;;;;;;;;;;10273777;28;20052;-63
2021/05/27 02:05:28;;;;;;;13.70;7.00;;;;;;;;;;10274900;28;20092;-63
2021/05/27 02:10:30;;;;;;;2.47;2.28;;;;;;;;;;10273468;28;20057;-64
2021/05/27 02:15:30;;;;;;;5.97;3.13;;;;;;;;;;10274405;28;20075;-63
2021/05/27 02:20:29;;;;;;;2.75;1.98;;;;;;;;;;10274359;28;20045;-63
2021/05/27 02:25:27;;;;;;;8.38;2.50;;;;;;;;;;10274578;28;20092;-64
2021/05/27 02:30:25;;;;;;;3.53;2.50;;;;;;;;;;10273447;28;20053;-64
2021/05/27 02:35:23;;;;;;;2.78;2.33;;;;;;;;;;10273445;28;20049;-63
2021/05/27 02:40:22;;;;;;;4.00;2.50;;;;;;;;;;10272669;28;20414;-63
2021/05/27 02:45:21;;;;;;;2.97;2.60;;;;;;;;;;10280414;28;20107;-63
2021/05/27 02:50:20;;;;;;;4.20;2.67;;;;;;;;;;10281423;28;20076;-63
2021/05/27 02:55:18;;;;;;;4.25;2.45;;;;;;;;;;10279597;28;20056;-63
2021/05/27 03:00:20;;;;;;;2.83;2.58;;;;;;;;;;10278768;28;20086;-63
2021/05/27 03:05:31;;;;;;;5.20;3.05;;;;;;;;;;10274905;28;20064;-63
2021/05/27 03:10:30;;;;;;;5.63;3.00;;;;;;;;;;10277293;28;20053;-63
2021/05/27 03:15:30;;;;;;;4.47;3.80;;;;;;;;;;10275427;28;20053;-63
2021/05/27 03:20:28;;;;;;;5.03;4.53;;;;;;;;;;10263553;28;20506;-63
2021/05/27 03:25:28;;;;;;;9.43;4.72;;;;;;;;;;10271342;28;20076;-62
2021/05/27 03:30:26;;;;;;;6.85;4.32;;;;;;;;;;10275487;28;20076;-62
2021/05/27 03:35:26;;;;;;;8.32;4.10;;;;;;;;;;10278393;28;20053;-62
2021/05/27 03:40:24;;;;;;;7.20;4.20;;;;;;;;;;10264321;28;20077;-62
2021/05/27 03:45:24;;;;;;;8.50;5.47;;;;;;;;;;10232547;28;20081;-62
2021/05/27 03:50:32;;;;;;;4.50;4.10;;;;;;;;;;10232859;28;20076;-62
2021/05/27 03:55:31;;;;;;;11.60;4.60;;;;;;;;;;10230903;28;20084;-62
2021/05/27 04:00:45;;;;;;;6.70;5.80;;;;;;;;;;10231787;28;20638;-62
2021/05/27 04:11:16;;;;;;;9.18;7.60;;;;;;;;;;10258470;28;20053;-62
2021/05/27 04:16:14;;;;;;;14.30;7.75;;;;;;;;;;10276573;28;20076;-63
2021/05/27 04:21:13;;;;;;;9.65;8.13;;;;;;;;;;10276222;28;20048;-62
2021/05/27 04:26:11;;;;;;;10.38;9.05;;;;;;;;;;10275842;28;20083;-63
2021/05/27 04:31:11;;;;;;;9.07;8.18;;;;;;;;;;10275914;28;20045;-61
2021/05/27 04:36:09;;;;;;;11.10;9.45;;;;;;;;;;10275504;28;20458;-63
2021/05/27 04:41:08;;;;;;;16.98;8.48;;;;;;;;;;10275136;28;20414;-64
2021/05/27 04:46:06;;;;;;;10.93;9.00;;;;;;;;;;10273951;28;20075;-64
2021/05/27 04:51:04;;;;;;;10.80;9.00;;;;;;;;;;10271577;28;20585;-65
2021/05/27 04:56:03;;;;;;;10.60;8.98;;;;;;;;;;10272316;28;20303;-64
2021/05/27 05:01:01;;;;;;;12.00;9.32;;;;;;;;;;10273411;28;20515;-64
2021/05/27 05:05:59;;;;;;;10.05;9.15;;;;;;;;;;10274611;28;20076;-64
2021/05/27 05:10:57;;;;;;;13.95;9.45;;;;;;;;;;10274804;28;20087;-64
2021/05/27 05:15:55;;;;;;;13.20;9.80;;;;;;;;;;10274623;28;20076;-64
2021/05/27 05:20:54;;;;;;;8.45;7.43;;;;;;;;;;10273683;28;20376;-63
2021/05/27 05:25:52;;;;;;;19.08;8.38;;;;;;;;;;10274295;28;20087;-63
2021/05/27 05:30:50;;;;;;;8.43;7.07;;;;;;;;;;10273668;28;20072;-63
2021/05/27 05:35:48;;;;;;;7.00;6.13;;;;;;;;;;10273715;28;20045;-64
2021/05/27 05:40:47;;;;;;;8.30;6.88;;;;;;;;;;10273291;28;20091;-64
2021/05/27 05:45:44;;;;;;;12.90;6.30;;;;;;;;;;10273758;28;20100;-63
2021/05/27 05:50:49;;;;;;;9.05;6.60;;;;;;;;;;10274044;28;20083;-64
2021/05/27 05:55:48;;;;;;;6.93;6.32;;;;;;;;;;10273270;28;20490;-63
2021/05/27 06:00:46;;;;;;;7.95;5.38;;;;;;;;;;10273247;28;20315;-63
2021/05/27 06:05:44;;;;;;;6.97;5.60;;;;;;;;;;10273090;28;20088;-63
2021/05/27 06:11:09;;;;;;;6.43;4.70;;;;;;;;;;10272497;28;20107;-63
2021/05/27 06:16:07;;;;;;;7.18;5.00;;;;;;;;;;10276262;28;20072;-63
2021/05/27 06:21:05;;;;;;;7.57;5.50;;;;;;;;;;10281323;28;20272;-63
2021/05/27 06:26:05;;;;;;;5.07;4.63;;;;;;;;;;10281006;28;20072;-63
2021/05/27 06:31:03;;;;;;;13.50;11.38;;;;;;;;;;10280619;28;20076;-63
2021/05/27 06:36:01;;;;;;;9.57;5.75;;;;;;;;;;10280231;28;20040;-63
2021/05/27 06:40:59;;;;;;;5.72;5.10;;;;;;;;;;10280103;28;20061;-64
2021/05/27 06:45:57;;;;;;;7.03;5.30;;;;;;;;;;10280427;28;20090;-64
2021/05/27 06:50:55;;;;;;;9.38;5.90;;;;;;;;;;10280032;28;20084;-63
2021/05/27 06:55:54;;;;;;;10.25;5.55;;;;;;;;;;10279515;28;20037;-64
2021/05/27 07:00:51;;;;;;;8.10;5.45;;;;;;;;;;10278995;28;20080;-64
2021/05/27 07:05:49;;;;;;;5.88;5.35;;;;;;;;;;10278914;28;20069;-63
2021/05/27 07:10:48;;;;;;;8.27;5.70;;;;;;;;;;10279128;28;20091;-63
2021/05/27 07:15:46;;;;;;;6.78;5.53;;;;;;;;;;10278170;28;20076;-63
2021/05/27 07:20:44;;;;;;;7.63;6.82;;;;;;;;;;10279075;28;20076;-63
2021/05/27 07:25:41;;;;;;;7.75;5.88;;;;;;;;;;10278331;28;20328;-63
2021/05/27 07:30:40;;;;;;;5.75;5.15;;;;;;;;;;10278180;28;20048;-63
2021/05/27 07:35:38;;;;;;;6.47;5.20;;;;;;;;;;10278442;28;20053;-63
2021/05/27 07:40:36;;;;;;;6.10;4.85;;;;;;;;;;10276412;28;20049;-64
2021/05/27 07:45:34;;;;;;;8.70;5.82;;;;;;;;;;10277983;28;20091;-62
2021/05/27 07:50:33;;;;;;;8.68;5.07;;;;;;;;;;10277137;28;20045;-62
2021/05/27 07:55:31;;;;;;;9.57;5.53;;;;;;;;;;10276826;28;20056;-63
2021/05/27 08:00:28;;;;;;;6.03;4.88;;;;;;;;;;10276771;28;20045;-63
2021/05/27 08:05:27;;;;;;;5.28;4.18;;;;;;;;;;10277282;28;20110;-63
2021/05/27 08:10:26;;;;;;;5.35;4.38;;;;;;;;;;10277018;28;20076;-63
2021/05/27 08:15:24;;;;;;;6.80;3.75;;;;;;;;;;10276720;28;20084;-63
2021/05/27 08:20:22;;;;;;;5.40;2.63;;;;;;;;;;10276345;28;20045;-63
2021/05/27 08:25:20;;;;;;;7.97;4.07;;;;;;;;;;10276463;28;20087;-63
2021/05/27 08:30:19;;;;;;;3.28;2.90;;;;;;;;;;10276409;28;20053;-63
2021/05/27 08:35:17;;;;;;;6.78;3.47;;;;;;;;;;10275759;28;20080;-64
2021/05/27 08:40:15;;;;;;;5.78;3.63;;;;;;;;;;10274578;28;20080;-64
2021/05/27 08:45:15;;;;;;;17.35;4.38;;;;;;;;;;10275723;28;20080;-64
2021/05/27 08:50:16;;;;;;;3.65;3.10;;;;;;;;;;10274351;28;20045;-63
2021/05/27 08:55:16;;;;;;;4.55;2.83;;;;;;;;;;10274633;28;20676;-64
2021/05/27 09:00:15;;;;;;;4.20;3.13;;;;;;;;;;10273467;28;20053;-62
2021/05/27 09:05:17;;;;;;;7.70;2.83;;;;;;;;;;10274598;28;20085;-65
2021/05/27 09:10:14;;;;;;;5.07;3.42;;;;;;;;;;10274144;28;20095;-63
2021/05/27 09:15:23;;;;;;;7.80;2.88;;;;;;;;;;10274127;28;20069;-63
2021/05/27 09:20:22;;;;;;;4.53;2.75;;;;;;;;;;10274587;28;20088;-63
2021/05/27 09:25:24;;;;;;;5.55;2.90;;;;;;;;;;10273769;28;20104;-63
2021/05/27 09:30:23;;;;;;;5.20;2.75;;;;;;;;;;10273919;28;20497;-63
2021/05/27 09:35:39;;;;;;;4.15;2.70;;;;;;;;;;10274052;28;20068;-64
2021/05/27 09:40:38;;;;;;;5.10;2.60;;;;;;;;;;10273705;28;20056;-64
2021/05/27 09:45:36;;;;;;;5.50;2.42;;;;;;;;;;10273097;28;20087;-63
2021/05/27 09:50:40;;;;;;;6.50;2.72;;;;;;;;;;10277768;28;20072;-64
2021/05/27 09:55:38;;;;;;;5.00;2.30;;;;;;;;;;10282110;28;20487;-63
2021/05/27 10:00:37;;;;;;;6.10;2.22;;;;;;;;;;10281524;28;20135;-64
2021/05/27 10:05:46;;;;;;;3.17;1.95;;;;;;;;;;10281636;28;20102;-64
2021/05/27 10:10:44;;;;;;;26.27;4.53;;;;;;;;;;10281176;28;20465;-64
2021/05/27 10:15:43;;;;;;;4.22;2.03;;;;;;;;;;10281389;28;20049;-64
2021/05/27 10:20:41;;;;;;;5.30;2.70;;;;;;;;;;10281049;28;20100;-63
2021/05/27 10:25:39;;;;;;;7.53;2.30;;;;;;;;;;10281273;28;20076;-64
2021/05/27 10:30:41;;;;;;;5.32;2.50;;;;;;;;;;10280469;28;20065;-64
2021/05/27 10:35:45;;;;;;;4.15;2.00;;;;;;;;;;10280927;28;20080;-64
2021/05/27 10:40:43;;;;;;;4.07;2.50;;;;;;;;;;10280828;28;20045;-64
2021/05/27 10:46:00;;;;;;;5.78;2.33;;;;;;;;;;10280198;28;20497;-64
2021/05/27 10:51:18;;;;;;;4.32;2.80;;;;;;;;;;10279623;28;20056;-64
2021/05/27 10:56:17;;;;;;;5.38;3.72;;;;;;;;;;10279805;28;20061;-63
2021/05/27 11:01:16;;;;;;;3.33;2.05;;;;;;;;;;10278964;28;20091;-63
2021/05/27 11:06:18;;;;;;;4.97;2.72;;;;;;;;;;10279689;28;20084;-64
2021/05/27 11:11:34;;;;;;;4.05;2.60;;;;;;;;;;10279257;28;20045;-63
2021/05/27 11:16:32;;;;;;;5.03;2.70;;;;;;;;;;10279639;28;20084;-63
2021/05/27 11:21:34;;;;;;;4.63;2.58;;;;;;;;;;10278903;28;20072;-63
2021/05/27 11:26:32;;;;;;;4.20;2.65;;;;;;;;;;10279054;28;20085;-63
2021/05/27 11:31:44;;;;;;;2.80;2.28;;;;;;;;;;10278404;28;20052;-63
2021/05/27 11:36:57;;;;;;;3.70;2.35;;;;;;;;;;10278172;28;20052;-63
2021/05/27 11:41:55;;;;;;;4.05;2.30;;;;;;;;;;10278320;28;20439;-64
2021/05/27 11:46:54;;;;;;;7.50;2.33;;;;;;;;;;10278097;28;20080;-63
2021/05/27 11:51:53;;;;;;;3.63;2.60;;;;;;;;;;10277887;28;20429;-64
2021/05/27 11:56:50;;;;;;;2.50;2.30;;;;;;;;;;10277759;28;20072;-63
2021/05/27 12:01:52;;;;;;;3.45;2.28;;;;;;;;;;10276828;28;20053;-63
2021/05/27 12:06:57;;;;;;;3.13;2.13;;;;;;;;;;10276916;28;20076;-63
2021/05/27 12:11:55;;;;;;;4.85;2.30;;;;;;;;;;10276730;28;20473;-63
2021/05/27 12:16:54;;;;;;;3.72;2.40;;;;;;;;;;10275976;28;20076;-63
2021/05/27 12:21:53;;;;;;;5.40;2.83;;;;;;;;;;10275992;28;20076;-63
2021/05/27 12:26:52;;;;;;;4.47;2.35;;;;;;;;;;10276206;28;20073;-63
2021/05/27 12:31:51;;;;;;;6.35;2.30;;;;;;;;;;10276281;28;20060;-63
2021/05/27 12:36:55;;;;;;;6.13;2.45;;;;;;;;;;10275639;28;20068;-64
2021/05/27 12:41:54;;;;;;;3.00;2.00;;;;;;;;;;10276160;28;20089;-64
2021/05/27 12:46:52;;;;;;;3.65;2.30;;;;;;;;;;10275268;28;20482;-64
2021/05/27 12:51:50;;;;;;;3.30;2.33;;;;;;;;;;10275724;28;20080;-63
2021/05/27 12:57:00;;;;;;;5.22;2.55;;;;;;;;;;10275618;28;20080;-63
2021/05/27 13:02:00;;;;;;;4.32;2.88;;;;;;;;;;10274732;28;20091;-63
2021/05/27 13:07:04;;;;;;;4.47;2.22;;;;;;;;;;10275187;28;20085;-63
2021/05/27 13:12:06;;;;;;;6.53;2.83;;;;;;;;;;10274834;28;20095;-63
2021/05/27 13:17:10;;;;;;;6.55;2.67;;;;;;;;;;10274940;28;20735;-64
2021/05/27 13:22:08;;;;;;;6.93;3.63;;;;;;;;;;10274564;28;20056;-63
2021/05/27 13:27:24;;;;;;;3.97;2.10;;;;;;;;;;10274094;28;20084;-63
2021/05/27 13:32:23;;;;;;;5.88;2.80;;;;;;;;;;10274382;28;20037;-64
2021/05/27 13:37:24;;;;;;;2.22;1.77;;;;;;;;;;10274189;28;20507;-63
2021/05/27 13:42:23;;;;;;;5.03;2.65;;;;;;;;;;10274500;28;20056;-63
2021/05/27 13:47:21;;;;;;;4.10;2.50;;;;;;;;;;10272088;28;20529;-63
2021/05/27 13:52:20;;;;;;;7.90;2.88;;;;;;;;;;10274328;28;20076;-63
2021/05/27 13:57:18;;;;;;;4.88;2.20;;;;;;;;;;10274196;28;20414;-63
2021/05/27 14:02:17;;;;;;;4.70;3.40;;;;;;;;;;10273644;28;20084;-63
2021/05/27 14:07:15;;;;;;;5.55;2.97;;;;;;;;;;10274305;28;20104;-63
2021/05/27 14:12:12;;;;;;;5.60;2.65;;;;;;;;;;10274076;28;20072;-63
2021/05/27 14:17:10;;;;;;;14.02;4.90;;;;;;;;;;10273125;28;20049;-64
2021/05/27 14:22:09;;;;;;;11.57;3.70;;;;;;;;;;10273692;28;20049;-63
2021/05/27 14:27:07;;;;;;;6.55;3.60;;;;;;;;;;10273858;28;20087;-63
2021/05/27 14:32:05;;;;;;;5.32;2.95;;;;;;;;;;10272643;28;20072;-63
2021/05/27 14:37:03;;;;;;;7.47;2.72;;;;;;;;;;10276073;28;20041;-63
2021/05/27 14:42:03;;;;;;;4.57;2.55;;;;;;;;;;10281042;28;20056;-63
2021/05/27 14:47:03;;;;;;;4.88;2.90;;;;;;;;;;10279776;28;20073;-63
2021/05/27 14:52:01;;;;;;;14.02;4.10;;;;;;;;;;10280163;28;20044;-63
2021/05/27 14:56:58;;;;;;;6.10;3.92;;;;;;;;;;10276562;28;20474;-63
2021/05/27 15:02:08;;;;;;;4.88;2.85;;;;;;;;;;10277820;28;20107;-62
2021/05/27 15:07:06;;;;;;;7.25;4.50;;;;;;;;;;10267800;28;20076;-63
2021/05/27 15:12:05;;;;;;;12.50;5.57;;;;;;;;;;10280190;28;20525;-61
2021/05/27 15:17:03;;;;;;;6.35;3.03;;;;;;;;;;10280335;28;20056;-62
2021/05/27 15:22:01;;;;;;;9.02;6.50;;;;;;;;;;10280545;28;20096;-64
2021/05/27 15:26:59;;;;;;;4.03;2.60;;;;;;;;;;10256979;28;20079;-61
2021/05/27 15:31:57;;;;;;;5.30;3.75;;;;;;;;;;10273261;28;20518;-60
2021/05/27 15:36:55;;;;;;;3.88;3.47;;;;;;;;;;10258842;28;20052;-62
2021/05/27 15:41:54;;;;;;;8.13;5.18;;;;;;;;;;10254548;28;20065;-62
2021/05/27 15:46:52;;;;;;;3.67;2.88;;;;;;;;;;10277718;28;20451;-62
2021/05/27 15:51:49;;;;;;;5.90;4.00;;;;;;;;;;10254013;28;20479;-64
2021/05/27 15:56:47;;;;;;;5.00;4.20;;;;;;;;;;10249725;28;20080;-64
2021/05/27 16:01:46;;;;;;;7.88;6.40;;;;;;;;;;10275977;28;20104;-63
2021/05/27 16:06:44;;;;;;;4.72;2.53;;;;;;;;;;10263448;28;20060;-63
2021/05/27 16:11:42;;;;;;;6.82;3.33;;;;;;;;;;10264263;28;20080;-64
2021/05/27 16:16:40;;;;;;;4.25;2.85;;;;;;;;;;10271967;28;20326;-64
2021/05/27 16:21:40;;;;;;;4.90;4.35;;;;;;;;;;10275319;28;20069;-63
2021/05/27 16:26:38;;;;;;;8.70;4.07;;;;;;;;;;10255554;28;20037;-65
2021/05/27 16:31:36;;;;;;;7.78;4.15;;;;;;;;;;10268239;28;20072;-64
2021/05/27 16:41:50;;;;;;;6.35;3.00;;;;;;;;;;10277132;28;20505;-64
2021/05/27 16:46:48;;;;;;;6.03;2.60;;;;;;;;;;10274773;28;20721;-64
2021/05/27 16:51:49;;;;;;;4.60;2.70;;;;;;;;;;10266705;28;20095;-64
2021/05/27 16:56:47;;;;;;;3.80;2.90;;;;;;;;;;10261242;28;20084;-64
2021/05/27 17:01:46;;;;;;;4.07;2.63;;;;;;;;;;10273661;28;20080;-64
2021/05/27 17:06:43;;;;;;;5.60;2.95;;;;;;;;;;10248725;28;20061;-64
2021/05/27 17:11:41;;;;;;;4.70;2.92;;;;;;;;;;10262350;28;20083;-62
2021/05/27 17:16:39;;;;;;;3.53;2.67;;;;;;;;;;10275787;28;20514;-63
2021/05/27 17:21:39;;;;;;;9.32;4.15;;;;;;;;;;10275305;28;20080;-64
2021/05/27 17:26:37;;;;;;;7.47;4.85;;;;;;;;;;10267586;28;20069;-62
2021/05/27 17:31:35;;;;;;;13.75;9.73;;;;;;;;;;10263491;28;20103;-63
2021/05/27 17:36:33;;;;;;;43.25;36.10;;;;;;;;;;10251982;28;20079;-63
2021/05/27 17:41:32;;;;;;;35.15;31.35;;;;;;;;;;10264643;28;20076;-63
2021/05/27 17:46:30;;;;;;;21.90;18.85;;;;;;;;;;10243603;28;20037;-63
2021/05/27 17:51:29;;;;;;;13.30;10.13;;;;;;;;;;10273521;28;20533;-63
2021/05/27 17:56:27;;;;;;;9.95;6.22;;;;;;;;;;10262030;28;20553;-64
2021/05/27 18:01:25;;;;;;;7.22;4.72;;;;;;;;;;10260368;28;20076;-63
2021/05/27 18:06:25;;;;;;;4.32;3.80;;;;;;;;;;10265328;28;20068;-62
2021/05/27 18:11:23;;;;;;;5.07;4.45;;;;;;;;;;10260430;28;20080;-63
2021/05/27 18:16:21;;;;;;;7.68;3.40;;;;;;;;;;10265929;28;20087;-62
2021/05/27 18:21:20;;;;;;;7.75;4.50;;;;;;;;;;10274336;28;20069;-63
2021/05/27 18:26:18;;;;;;;3.88;3.28;;;;;;;;;;10279382;28;20073;-64
2021/05/27 18:31:18;;;;;;;10.68;3.78;;;;;;;;;;10277513;28;20079;-63
2021/05/27 18:36:16;;;;;;;8.20;3.92;;;;;;;;;;10282055;28;20080;-63
2021/05/27 18:41:15;;;;;;;6.65;3.55;;;;;;;;;;10281840;28;20069;-63
2021/05/27 18:46:13;;;;;;;10.00;3.63;;;;;;;;;;10281811;28;20055;-62
2021/05/27 18:51:11;;;;;;;6.25;4.10;;;;;;;;;;10280320;28;20103;-63
2021/05/27 18:56:09;;;;;;;8.13;3.80;;;;;;;;;;10280192;28;20067;-63
2021/05/27 19:01:08;;;;;;;10.77;4.68;;;;;;;;;;10280734;28;20111;-63
2021/05/27 19:06:06;;;;;;;8.13;4.35;;;;;;;;;;10279976;28;20064;-63
2021/05/27 19:11:04;;;;;;;5.25;3.28;;;;;;;;;;10279964;28;20045;-63
2021/05/27 19:16:01;;;;;;;8.85;4.00;;;;;;;;;;10279344;28;20060;-63
2021/05/27 19:21:00;;;;;;;6.47;3.63;;;;;;;;;;10278979;28;20080;-63
2021/05/27 19:25:59;;;;;;;8.20;3.70;;;;;;;;;;10276008;28;20065;-63
2021/05/27 19:30:57;;;;;;;9.68;3.75;;;;;;;;;;10279175;28;20076;-64
2021/05/27 19:35:54;;;;;;;6.78;3.50;;;;;;;;;;10278811;28;20056;-64
2021/05/27 19:40:53;;;;;;;6.88;3.40;;;;;;;;;;10277377;28;20418;-63
2021/05/27 19:45:51;;;;;;;4.90;4.10;;;;;;;;;;10279690;28;20057;-63
2021/05/27 19:50:49;;;;;;;5.28;3.03;;;;;;;;;;10279122;28;20081;-63
2021/05/27 19:55:47;;;;;;;2.97;2.65;;;;;;;;;;10278922;28;20201;-63
2021/05/27 20:00:46;;;;;;;5.60;3.35;;;;;;;;;;10276750;28;20040;-64
2021/05/27 20:05:44;;;;;;;6.30;2.90;;;;;;;;;;10278969;28;20068;-64
2021/05/27 20:10:42;;;;;;;5.55;3.50;;;;;;;;;;10276259;28;20083;-63
2021/05/27 20:15:39;;;;;;;4.15;3.00;;;;;;;;;;10277314;28;20071;-63
2021/05/27 20:20:38;;;;;;;4.43;2.83;;;;;;;;;;10277741;28;20049;-64
2021/05/27 20:25:37;;;;;;;4.68;2.63;;;;;;;;;;10277034;28;20115;-63
2021/05/27 20:30:34;;;;;;;7.47;3.03;;;;;;;;;;10275721;28;20459;-63
2021/05/27 20:35:32;;;;;;;4.72;3.40;;;;;;;;;;10276502;28;20072;-63
2021/05/27 20:40:33;;;;;;;4.57;3.45;;;;;;;;;;10276917;28;20045;-64
2021/05/27 20:45:31;;;;;;;3.75;3.45;;;;;;;;;;10276801;28;20041;-65
2021/05/27 20:50:31;;;;;;;4.68;3.70;;;;;;;;;;10276834;28;20076;-63
2021/05/27 20:55:29;;;;;;;5.95;4.05;;;;;;;;;;10276455;28;20037;-63
2021/05/27 21:00:28;;;;;;;4.10;3.70;;;;;;;;;;10276491;28;20056;-63
2021/05/27 21:05:26;;;;;;;9.25;3.45;;;;;;;;;;10276636;28;20521;-63
2021/05/27 21:10:24;;;;;;;14.32;4.30;;;;;;;;;;10276554;28;20076;-63
2021/05/27 21:15:22;;;;;;;8.88;4.20;;;;;;;;;;10276045;28;20044;-63
2021/05/27 21:20:20;;;;;;;6.03;3.50;;;;;;;;;;10276082;28;20474;-64
2021/05/27 21:25:18;;;;;;;11.82;6.22;;;;;;;;;;10276094;28;20037;-65
2021/05/27 21:30:17;;;;;;;7.70;3.60;;;;;;;;;;10275025;28;20128;-63
2021/05/27 21:35:14;;;;;;;5.00;3.70;;;;;;;;;;10276070;28;20048;-64
2021/05/27 21:40:14;;;;;;;7.47;3.95;;;;;;;;;;10275895;28;20044;-64
2021/05/27 21:45:12;;;;;;;8.60;4.30;;;;;;;;;;10276502;28;20477;-64
2021/05/27 21:50:13;;;;;;;6.60;4.95;;;;;;;;;;10283678;28;20088;-64
2021/05/27 21:55:12;;;;;;;6.25;4.47;;;;;;;;;;10283887;28;20056;-64
2021/05/27 22:00:12;;;;;;;7.30;4.90;;;;;;;;;;10283434;28;20052;-64
2021/05/27 22:05:10;;;;;;;9.82;4.97;;;;;;;;;;10282711;28;20084;-64
2021/05/27 22:10:09;;;;;;;7.00;4.00;;;;;;;;;;10282270;28;20085;-64
2021/05/27 22:15:07;;;;;;;7.50;4.22;;;;;;;;;;10283217;28;20060;-65
2021/05/27 22:20:07;;;;;;;6.05;3.95;;;;;;;;;;10282517;28;20049;-64
2021/05/27 22:25:05;;;;;;;5.00;4.50;;;;;;;;;;10282302;28;20041;-64
2021/05/27 22:30:04;;;;;;;7.50;4.57;;;;;;;;;;10282446;28;20118;-64
2021/05/27 22:35:01;;;;;;;7.05;4.15;;;;;;;;;;10281835;28;20056;-64
2021/05/27 22:40:02;;;;;;;6.32;4.35;;;;;;;;;;10280972;28;20053;-64
2021/05/27 22:45:00;;;;;;;5.60;4.05;;;;;;;;;;10281585;28;20052;-64
2021/05/27 22:49:58;;;;;;;8.50;3.70;;;;;;;;;;10281790;28;20170;-64
2021/05/27 22:54:55;;;;;;;6.45;4.63;;;;;;;;;;10281447;28;20049;-64
2021/05/27 22:59:54;;;;;;;4.35;3.88;;;;;;;;;;10279581;28;20083;-64
2021/05/27 23:04:52;;;;;;;6.60;4.18;;;;;;;;;;10282164;28;20454;-64
2021/05/27 23:09:50;;;;;;;5.70;4.05;;;;;;;;;;10281068;28;20076;-65
2021/05/27 23:14:48;;;;;;;5.53;3.60;;;;;;;;;;10280507;28;20510;-64
2021/05/27 23:19:46;;;;;;;6.63;4.38;;;;;;;;;;10280420;28;20049;-64
2021/05/27 23:24:44;;;;;;;6.28;4.25;;;;;;;;;;10280442;28;20080;-65
2021/05/27 23:29:42;;;;;;;4.50;4.03;;;;;;;;;;10278892;28;20048;-65
2021/05/27 23:34:40;;;;;;;6.32;4.22;;;;;;;;;;10279349;28;20069;-64
2021/05/27 23:39:38;;;;;;;4.55;4.15;;;;;;;;;;10279466;28;20064;-64
2021/05/27 23:44:36;;;;;;;9.30;4.13;;;;;;;;;;10278805;28;20049;-64
2021/05/27 23:49:35;;;;;;;5.10;4.13;;;;;;;;;;10279171;28;20076;-64
2021/05/27 23:54:33;;;;;;;5.25;4.75;;;;;;;;;;10280097;28;20075;-64
2021/05/27 23:59:31;;;;;;;10.43;4.63;;;;;;;;;;10279181;28;20070;-64
